Ímóti Miđvági

Vevmynd ímóti Miđvági

Terminalur Ímóti Sřrvági


Veđriđ á flogvřllinum (metar):

EKVG 240020Z AUTO 01001KT 9999NDV SCT110/// 02/M01 Q1024

METAR / TAF frá DMI fyri Vágar                      Veđurtíđindi frá Vága Floghavn

Atlantic Airways

Atlantic Airways heimasíđa

Tíđindi    .

26. januar 2015
Áheitan viđvíkjandi lasaraljós

Veđriđ

Kunning

Vevmyndir

Terminalur